Time;durP1;ratioP1;P1;durP2;ratioP2;P2;SDS_P1;SDS_P2;PMS_P1;PMS_P2;Temp;Humidity;BMP_temperature;BMP_pressure;BME280_temperature;BME280_humidity;BME280_pressure;Samples;Min_cycle;Max_cycle;Signal;HPM_P1;HPM_P2
2021/01/10 00:00:40;;;;;;;12.63;6.95;;;11.30;99.90;;;;;;4710977;30;20049;-81
2021/01/10 00:03:07;;;;;;;12.75;6.88;;;11.40;99.90;;;;;;4681442;30;20041;-81
2021/01/10 00:05:41;;;;;;;13.00;7.05;;;11.50;99.90;;;;;;4684298;30;20439;-81
2021/01/10 00:08:07;;;;;;;9.63;6.05;;;11.50;99.90;;;;;;4696526;30;20110;-81
2021/01/10 00:10:35;;;;;;;12.48;5.57;;;11.60;99.90;;;;;;4697789;30;20514;-81
2021/01/10 00:13:03;;;;;;;12.82;5.70;;;11.60;99.90;;;;;;4681976;30;20034;-81
2021/01/10 00:15:30;;;;;;;10.57;5.28;;;11.70;99.90;;;;;;4696262;30;20056;-81
2021/01/10 00:17:56;;;;;;;9.60;5.53;;;11.70;99.90;;;;;;4697634;30;20053;-81
2021/01/10 00:20:23;;;;;;;8.65;4.95;;;11.80;99.90;;;;;;4696127;30;20041;-81
2021/01/10 00:22:58;;;;;;;8.45;5.13;;;11.80;99.90;;;;;;4697206;30;20048;-81
2021/01/10 00:25:24;;;;;;;10.32;5.55;;;11.60;99.90;;;;;;4709701;30;20030;-81
2021/01/10 00:27:51;;;;;;;9.95;5.60;;;11.60;99.90;;;;;;4695784;30;20060;-81
2021/01/10 00:30:20;;;;;;;10.35;5.43;;;11.50;99.90;;;;;;4706893;30;20040;-81
2021/01/10 00:32:54;;;;;;;12.05;6.18;;;11.40;99.90;;;;;;4711653;30;20061;-81
2021/01/10 00:35:21;;;;;;;11.45;5.55;;;11.20;99.90;;;;;;4695387;30;20037;-81
2021/01/10 00:37:57;;;;;;;10.05;5.53;;;11.20;99.90;;;;;;4695524;30;20098;-81
2021/01/10 00:40:25;;;;;;;8.77;4.57;;;11.30;99.90;;;;;;4704435;30;20049;-82
2021/01/10 00:42:51;;;;;;;10.45;5.57;;;11.30;99.90;;;;;;4697925;30;20030;-82
2021/01/10 00:45:18;;;;;;;14.73;6.60;;;11.20;99.90;;;;;;4694578;30;20621;-81
2021/01/10 00:47:53;;;;;;;49.00;9.77;;;11.30;99.90;;;;;;4693345;30;20492;-81
2021/01/10 00:50:22;;;;;;;42.58;8.32;;;11.30;99.90;;;;;;4676644;30;20400;-81
2021/01/10 00:52:49;;;;;;;30.58;7.75;;;11.10;99.90;;;;;;4679982;30;20041;-83
2021/01/10 00:55:15;;;;;;;48.88;10.02;;;11.10;99.90;;;;;;4679516;30;20025;-84
2021/01/10 00:57:41;;;;;;;22.20;6.65;;;11.10;99.90;;;;;;4693833;30;20037;-83
2021/01/10 01:00:15;;;;;;;8.88;4.82;;;11.20;99.90;;;;;;4697922;30;20137;-79
2021/01/10 01:02:49;;;;;;;14.10;5.75;;;11.20;99.90;;;;;;4694732;30;20037;-79
2021/01/10 01:05:16;;;;;;;12.02;6.22;;;11.20;99.90;;;;;;4711841;30;20404;-79
2021/01/10 01:07:42;;;;;;;14.25;6.25;;;11.20;99.90;;;;;;4697333;30;20100;-79
2021/01/10 01:10:10;;;;;;;11.25;5.97;;;11.20;99.90;;;;;;4679867;30;20042;-78
2021/01/10 01:12:36;;;;;;;11.45;6.53;;;11.10;99.90;;;;;;4684490;30;20038;-78
2021/01/10 01:15:03;;;;;;;12.95;5.97;;;11.10;99.90;;;;;;4714430;30;20044;-78
2021/01/10 01:17:29;;;;;;;10.88;6.03;;;11.10;99.90;;;;;;4713695;30;20057;-79
2021/01/10 01:19:55;;;;;;;15.55;6.90;;;11.10;99.90;;;;;;4695577;30;20096;-78
2021/01/10 01:22:21;;;;;;;13.07;7.18;;;11.10;99.90;;;;;;4679375;30;20034;-78
2021/01/10 01:24:47;;;;;;;12.93;6.97;;;11.10;99.90;;;;;;4708212;30;20030;-79
2021/01/10 01:27:13;;;;;;;10.88;5.72;;;11.20;99.90;;;;;;4714672;30;20043;-79
2021/01/10 01:29:39;;;;;;;11.52;5.78;;;11.20;99.90;;;;;;4701055;30;20451;-79
2021/01/10 01:32:05;;;;;;;11.60;5.93;;;11.10;99.90;;;;;;4694101;30;20030;-79
2021/01/10 01:34:31;;;;;;;10.82;5.55;;;11.10;99.90;;;;;;4699790;30;20395;-78
2021/01/10 01:36:57;;;;;;;8.73;5.70;;;11.20;99.90;;;;;;4697220;30;20044;-78
2021/01/10 01:39:23;;;;;;;10.80;6.00;;;11.30;99.90;;;;;;4697764;30;20103;-78
2021/01/10 01:41:50;;;;;;;11.02;5.88;;;11.40;99.90;;;;;;4697965;30;20167;-78
2021/01/10 01:44:16;;;;;;;9.40;4.80;;;11.40;99.90;;;;;;4713137;30;20044;-78
2021/01/10 01:46:42;;;;;;;8.70;4.97;;;11.50;99.90;;;;;;4704778;30;20029;-79
2021/01/10 01:49:10;;;;;;;9.02;5.10;;;11.60;99.90;;;;;;4697775;30;20103;-80
2021/01/10 01:51:37;;;;;;;7.82;4.38;;;11.60;99.90;;;;;;4696904;30;20049;-79
2021/01/10 01:54:06;;;;;;;9.32;5.05;;;11.60;99.90;;;;;;4699397;30;20029;-79
2021/01/10 01:56:33;;;;;;;9.65;5.07;;;11.70;99.90;;;;;;4708173;30;20030;-79
2021/01/10 01:59:08;;;;;;;9.63;5.18;;;11.70;99.90;;;;;;4697543;30;20044;-79
2021/01/10 02:01:38;;;;;;;9.43;5.75;;;11.70;99.90;;;;;;4697676;30;20496;-79
2021/01/10 02:04:24;;;;;;;10.23;4.68;;;11.80;99.90;;;;;;4697362;30;20488;-79
2021/01/10 02:07:06;;;;;;;9.45;5.88;;;11.80;99.90;;;;;;4707704;30;20094;-79
2021/01/10 02:09:39;;;;;;;11.07;6.03;;;11.80;99.90;;;;;;4679005;30;20408;-79
2021/01/10 02:12:09;;;;;;;8.25;4.55;;;11.80;99.90;;;;;;4680175;30;20065;-79
2021/01/10 02:14:49;;;;;;;9.23;5.00;;;11.70;99.90;;;;;;4681994;30;20496;-78
2021/01/10 02:17:16;;;;;;;8.05;5.03;;;11.70;99.90;;;;;;4706538;30;20050;-79
2021/01/10 02:20:04;;;;;;;10.13;5.22;;;11.80;99.90;;;;;;4697246;30;20045;-79
2021/01/10 02:22:50;;;;;;;9.02;5.00;;;11.80;99.90;;;;;;4697216;30;20065;-79
2021/01/10 02:25:16;;;;;;;7.40;4.60;;;11.80;99.90;;;;;;4684631;30;20037;-79
2021/01/10 02:27:44;;;;;;;7.97;4.28;;;11.80;99.90;;;;;;4703089;30;20061;-79
2021/01/10 02:30:11;;;;;;;7.45;4.43;;;11.90;99.90;;;;;;4682350;30;20037;-79
2021/01/10 02:32:42;;;;;;;8.10;4.10;;;11.90;99.90;;;;;;4696965;30;20061;-79
2021/01/10 02:35:10;;;;;;;8.43;4.35;;;11.90;99.90;;;;;;4696807;30;20036;-77
2021/01/10 02:37:54;;;;;;;9.05;4.75;;;11.90;99.90;;;;;;4694691;30;20605;-79
2021/01/10 02:40:37;;;;;;;7.88;4.38;;;12.00;99.90;;;;;;4696780;30;20049;-79
2021/01/10 02:43:11;;;;;;;;;;;11.90;99.90;;;;;;4697349;30;20444;-79
2021/01/10 02:45:42;;;;;;;8.50;4.68;;;11.90;99.90;;;;;;4696376;30;19919;-78
2021/01/10 02:48:10;;;;;;;6.50;3.88;;;12.00;99.90;;;;;;4708935;30;20026;-78
2021/01/10 02:50:36;;;;;;;7.05;4.03;;;12.00;99.90;;;;;;4696634;30;20037;-79
2021/01/10 02:53:03;;;;;;;7.60;3.90;;;12.00;99.90;;;;;;4696702;30;20030;-79
2021/01/10 02:55:30;;;;;;;7.28;4.07;;;11.90;99.90;;;;;;4696893;30;20107;-78
2021/01/10 02:58:02;;;;;;;7.43;3.45;;;11.90;99.90;;;;;;4709886;30;20037;-78
2021/01/10 03:00:30;;;;;;;6.82;3.35;;;11.90;99.90;;;;;;4696261;30;20048;-79
2021/01/10 03:02:57;;;;;;;5.03;3.50;;;11.90;99.90;;;;;;4701160;30;20025;-78
2021/01/10 03:05:26;;;;;;;4.72;2.97;;;11.90;99.90;;;;;;4702531;30;20061;-79
2021/01/10 03:07:55;;;;;;;4.68;2.95;;;11.80;99.90;;;;;;4714122;30;20036;-79
2021/01/10 03:10:21;;;;;;;4.53;2.80;;;11.80;99.90;;;;;;4699777;30;20543;-79
2021/01/10 03:12:47;;;;;;;5.53;3.47;;;11.80;99.90;;;;;;4685459;30;20040;-79
2021/01/10 03:15:14;;;;;;;6.53;3.70;;;11.80;99.90;;;;;;4698310;30;20400;-79
2021/01/10 03:17:44;;;;;;;4.35;2.80;;;11.80;99.90;;;;;;4700696;30;20116;-79
2021/01/10 03:20:12;;;;;;;5.15;3.05;;;11.80;99.90;;;;;;4705975;30;20048;-79
2021/01/10 03:22:39;;;;;;;4.55;2.97;;;11.80;99.90;;;;;;4701203;30;20476;-79
2021/01/10 03:25:07;;;;;;;5.05;3.13;;;11.80;99.90;;;;;;4702249;30;20568;-79
2021/01/10 03:27:34;;;;;;;4.43;2.90;;;11.80;99.90;;;;;;4706508;30;20125;-78
2021/01/10 03:30:03;;;;;;;6.47;3.42;;;11.90;99.90;;;;;;4692345;30;20038;-78
2021/01/10 03:32:29;;;;;;;5.50;3.08;;;11.80;99.90;;;;;;4684979;30;20049;-79
2021/01/10 03:34:55;;;;;;;4.90;2.85;;;11.90;99.90;;;;;;4684981;30;20117;-79
2021/01/10 03:37:21;;;;;;;7.72;3.60;;;11.90;99.90;;;;;;4685324;30;20034;-79
2021/01/10 03:39:47;;;;;;;5.28;3.38;;;11.90;99.90;;;;;;4713697;30;20038;-79
2021/01/10 03:42:13;;;;;;;5.78;3.45;;;11.90;99.90;;;;;;4701196;30;20034;-79
2021/01/10 03:44:39;;;;;;;6.85;4.07;;;11.90;99.90;;;;;;4700770;30;20037;-79
2021/01/10 03:47:05;;;;;;;6.80;3.95;;;11.90;99.90;;;;;;4702355;30;20283;-79
2021/01/10 03:49:31;;;;;;;4.97;3.13;;;11.90;99.90;;;;;;4699677;30;20037;-78
2021/01/10 03:51:58;;;;;;;6.97;4.20;;;12.00;99.90;;;;;;4700713;30;20377;-79
2021/01/10 03:54:24;;;;;;;6.30;3.45;;;12.00;99.90;;;;;;4701906;30;20045;-78
2021/01/10 03:56:50;;;;;;;4.68;3.10;;;12.00;99.90;;;;;;4702216;30;20092;-78
2021/01/10 03:59:16;;;;;;;5.78;3.75;;;11.90;99.90;;;;;;4709675;30;20033;-78
2021/01/10 04:01:42;;;;;;;5.60;3.08;;;11.80;99.90;;;;;;4701937;30;20456;-78
2021/01/10 04:04:08;;;;;;;7.25;3.83;;;11.90;99.90;;;;;;4683670;30;20041;-79
2021/01/10 04:06:34;;;;;;;7.15;3.90;;;11.90;99.90;;;;;;4684882;30;20038;-79
2021/01/10 04:09:00;;;;;;;8.77;4.63;;;12.00;99.90;;;;;;4693917;30;20040;-79
2021/01/10 04:11:26;;;;;;;10.60;4.78;;;12.00;99.90;;;;;;4723818;30;20068;-79
2021/01/10 04:13:52;;;;;;;7.53;3.83;;;11.90;99.90;;;;;;4698450;30;20495;-79
2021/01/10 04:16:19;;;;;;;6.78;3.38;;;11.80;99.90;;;;;;4697786;30;20483;-79
2021/01/10 04:18:45;;;;;;;7.43;3.15;;;11.80;99.90;;;;;;4698799;30;20073;-79
2021/01/10 04:21:11;;;;;;;5.13;3.50;;;11.90;99.90;;;;;;4711576;30;20045;-78
2021/01/10 04:23:37;;;;;;;6.88;3.65;;;12.00;99.90;;;;;;4696306;30;20108;-79
2021/01/10 04:26:03;;;;;;;5.10;3.40;;;12.00;99.90;;;;;;4699088;30;20108;-79
2021/01/10 04:28:30;;;;;;;5.32;3.38;;;12.00;99.90;;;;;;4698857;30;20063;-79
2021/01/10 04:30:56;;;;;;;6.30;3.88;;;11.80;99.90;;;;;;4712285;30;20061;-79
2021/01/10 04:33:23;;;;;;;6.15;3.30;;;11.70;99.90;;;;;;4698569;30;20500;-79
2021/01/10 04:35:49;;;;;;;7.28;4.30;;;11.60;99.90;;;;;;4697727;30;20425;-78
2021/01/10 04:38:16;;;;;;;8.95;5.18;;;11.50;99.90;;;;;;4698958;30;20041;-78
2021/01/10 04:40:42;;;;;;;6.55;4.18;;;11.60;99.90;;;;;;4706938;30;20111;-78
2021/01/10 04:43:08;;;;;;;8.20;4.35;;;11.60;99.90;;;;;;4702475;30;20424;-78
2021/01/10 04:45:35;;;;;;;8.68;4.13;;;11.70;99.90;;;;;;4698793;30;20037;-79
2021/01/10 04:48:02;;;;;;;6.53;4.07;;;11.80;99.90;;;;;;4697848;30;20459;-78
2021/01/10 04:50:31;;;;;;;6.72;3.80;;;11.80;99.90;;;;;;4703207;30;20037;-78
2021/01/10 04:52:59;;;;;;;6.03;4.05;;;11.80;99.90;;;;;;4706404;30;20067;-79
2021/01/10 04:55:27;;;;;;;6.90;4.28;;;11.90;99.90;;;;;;4697352;30;20076;-79
2021/01/10 04:58:05;;;;;;;6.57;3.88;;;12.00;99.90;;;;;;4699303;30;20201;-78
2021/01/10 05:00:32;;;;;;;6.25;3.80;;;12.00;99.90;;;;;;4711975;30;20054;-78
2021/01/10 05:03:07;;;;;;;7.15;4.07;;;12.00;99.90;;;;;;4698322;30;20116;-79
2021/01/10 05:05:38;;;;;;;9.65;4.18;;;12.10;99.90;;;;;;4729004;30;20117;-78
2021/01/10 05:08:08;;;;;;;7.60;3.90;;;12.10;99.90;;;;;;4716052;30;20033;-79
2021/01/10 05:10:35;;;;;;;7.13;4.45;;;12.00;99.90;;;;;;4715417;30;20045;-79
2021/01/10 05:13:02;;;;;;;7.35;4.05;;;12.10;99.90;;;;;;4710507;30;20384;-78
2021/01/10 05:15:28;;;;;;;7.65;3.60;;;12.10;99.90;;;;;;4712513;30;20052;-78
2021/01/10 05:17:55;;;;;;;8.05;5.25;;;12.00;99.90;;;;;;4714647;30;20048;-78
2021/01/10 05:20:26;;;;;;;9.20;5.45;;;11.90;99.90;;;;;;4715497;30;20558;-78
2021/01/10 05:22:52;;;;;;;9.40;4.78;;;11.80;99.90;;;;;;4714254;30;20037;-79
2021/01/10 05:25:19;;;;;;;10.90;5.88;;;11.70;99.90;;;;;;4701151;30;20030;-78
2021/01/10 05:27:52;;;;;;;26.55;7.28;;;11.70;99.90;;;;;;4698226;30;20926;-79
2021/01/10 05:30:30;;;;;;;54.63;8.48;;;11.70;99.90;;;;;;4697912;30;20038;-78
2021/01/10 05:33:05;;;;;;;32.58;7.10;;;11.70;99.90;;;;;;4697798;30;20030;-79
2021/01/10 05:35:52;;;;;;;23.02;5.80;;;11.70;99.90;;;;;;4695281;30;20038;-79
2021/01/10 05:38:25;;;;;;;20.48;5.60;;;11.60;99.90;;;;;;4696731;30;20044;-79
2021/01/10 05:40:54;;;;;;;12.57;5.70;;;11.50;99.90;;;;;;4696747;30;20080;-79
2021/01/10 05:43:20;;;;;;;27.40;7.60;;;11.50;99.90;;;;;;4697841;30;20038;-79
2021/01/10 05:45:46;;;;;;;10.35;4.63;;;11.50;99.90;;;;;;4700432;30;20037;-79
2021/01/10 05:48:14;;;;;;;20.90;5.80;;;11.50;99.90;;;;;;4697881;30;20083;-78
2021/01/10 05:50:44;;;;;;;13.68;6.13;;;11.60;99.90;;;;;;4697741;30;20132;-78
2021/01/10 05:53:17;;;;;;;11.18;5.70;;;11.50;99.90;;;;;;4697741;30;20483;-79
2021/01/10 05:55:59;;;;;;;8.48;5.03;;;11.40;99.90;;;;;;4681845;30;20081;-78
2021/01/10 05:58:32;;;;;;;10.13;6.05;;;11.40;99.90;;;;;;4680725;30;20037;-79
2021/01/10 06:00:59;;;;;;;43.15;7.43;;;11.30;99.90;;;;;;4678895;30;20065;-78
2021/01/10 06:03:31;;;;;;;13.73;6.07;;;11.30;99.90;;;;;;4679284;30;20396;-78
2021/01/10 06:06:04;;;;;;;12.75;6.43;;;11.40;99.90;;;;;;4691311;30;20041;-78
2021/01/10 06:08:40;;;;;;;11.50;6.03;;;11.40;99.90;;;;;;4697482;30;20065;-79
2021/01/10 06:11:22;;;;;;;12.35;5.35;;;11.40;99.90;;;;;;4696209;30;20057;-78
2021/01/10 06:13:59;;;;;;;11.88;6.55;;;11.40;99.90;;;;;;4697151;30;20030;-78
2021/01/10 06:16:32;;;;;;;13.57;6.82;;;11.40;99.90;;;;;;4700078;30;20049;-79
2021/01/10 06:19:03;;;;;;;9.82;5.68;;;11.40;99.90;;;;;;4697091;30;20099;-78
2021/01/10 06:21:31;;;;;;;9.48;6.22;;;11.50;99.90;;;;;;4697117;30;20049;-79
2021/01/10 06:24:01;;;;;;;12.38;5.43;;;11.50;99.90;;;;;;4697025;30;20038;-78
2021/01/10 06:26:44;;;;;;;8.60;5.32;;;11.60;99.90;;;;;;4701404;30;20041;-78
2021/01/10 06:29:14;;;;;;;9.57;5.07;;;11.70;99.90;;;;;;4697189;30;20038;-78
2021/01/10 06:31:49;;;;;;;7.35;4.93;;;11.80;99.90;;;;;;4697319;30;20034;-78
2021/01/10 06:34:19;;;;;;;8.60;4.82;;;11.80;99.90;;;;;;4695642;30;20096;-79
2021/01/10 06:36:46;;;;;;;10.52;5.78;;;11.90;99.90;;;;;;4701220;30;20085;-80
2021/01/10 06:39:20;;;;;;;8.32;4.88;;;11.90;99.90;;;;;;4697255;30;20092;-79
2021/01/10 06:42:05;;;;;;;;;;;12.00;99.90;;;;;;4696459;30;20079;-79
2021/01/10 06:44:36;;;;;;;7.07;4.50;;;12.00;99.90;;;;;;4696861;30;20396;-79
2021/01/10 06:47:03;;;;;;;10.73;4.40;;;12.10;99.90;;;;;;4701260;30;20029;-79
2021/01/10 06:49:29;;;;;;;7.35;3.70;;;12.10;99.90;;;;;;4695528;30;20373;-79
2021/01/10 06:52:02;;;;;;;6.78;3.17;;;12.10;99.90;;;;;;4695794;30;20042;-79
2021/01/10 06:54:28;;;;;;;6.80;3.03;;;12.20;99.90;;;;;;4695673;30;20037;-79
2021/01/10 06:56:56;;;;;;;4.68;2.97;;;12.10;99.90;;;;;;4698863;30;20552;-79
2021/01/10 06:59:25;;;;;;;6.38;3.17;;;12.20;99.90;;;;;;4698778;30;20033;-80
2021/01/10 07:01:51;;;;;;;6.30;3.40;;;12.30;99.90;;;;;;4680454;30;20514;-79
2021/01/10 07:04:22;;;;;;;9.48;3.80;;;12.30;99.90;;;;;;4696485;30;20048;-79
2021/01/10 07:06:55;;;;;;;8.15;4.18;;;12.30;99.90;;;;;;4695309;30;20044;-79
2021/01/10 07:09:22;;;;;;;7.43;4.18;;;12.40;99.90;;;;;;4713763;30;20044;-79
2021/01/10 07:11:49;;;;;;;6.97;4.20;;;12.40;99.90;;;;;;4712649;30;20047;-79
2021/01/10 07:14:21;;;;;;;8.00;4.18;;;12.40;99.90;;;;;;4698128;30;20449;-79
2021/01/10 07:16:47;;;;;;;8.32;4.13;;;12.50;99.90;;;;;;4696664;30;20093;-79
2021/01/10 07:19:15;;;;;;;6.20;3.50;;;12.50;99.90;;;;;;4709202;30;20033;-79
2021/01/10 07:21:46;;;;;;;6.25;3.38;;;12.60;99.90;;;;;;4713899;30;20122;-78
2021/01/10 07:24:33;;;;;;;7.05;3.42;;;12.50;99.90;;;;;;4699747;30;20042;-79
2021/01/10 07:27:00;;;;;;;5.72;3.47;;;12.60;99.90;;;;;;4695298;30;20047;-79
2021/01/10 07:29:32;;;;;;;11.38;5.10;;;12.70;99.90;;;;;;4709276;30;20033;-79
2021/01/10 07:32:11;;;;;;;8.70;4.40;;;12.80;99.90;;;;;;4713693;30;20041;-79
2021/01/10 07:34:57;;;;;;;5.00;3.08;;;12.90;99.90;;;;;;4701315;30;20029;-79
2021/01/10 07:37:23;;;;;;;6.47;3.42;;;13.00;99.90;;;;;;4696367;30;20480;-79
2021/01/10 07:39:53;;;;;;;6.45;2.75;;;13.10;99.90;;;;;;4709649;30;20056;-79
2021/01/10 07:42:21;;;;;;;8.73;2.95;;;13.20;99.90;;;;;;4698365;30;20049;-81
2021/01/10 07:44:49;;;;;;;6.22;3.25;;;13.30;99.90;;;;;;4692302;30;20033;-79
2021/01/10 07:47:38;;;;;;;12.77;3.13;;;13.40;99.90;;;;;;4700507;30;20042;-80
2021/01/10 07:50:13;;;;;;;8.50;3.60;;;13.50;99.90;;;;;;4711539;30;20522;-83
2021/01/10 07:52:42;;;;;;;9.80;4.35;;;13.50;99.90;;;;;;4716081;30;20041;-80
2021/01/10 07:55:20;;;;;;;8.85;4.00;;;13.60;99.90;;;;;;4715501;30;20040;-85
2021/01/10 07:58:02;;;;;;;12.07;5.35;;;13.60;99.90;;;;;;4696227;30;20040;-84
2021/01/10 08:00:36;;;;;;;9.85;5.38;;;13.30;99.90;;;;;;4703236;30;20053;-80
2021/01/10 08:03:24;;;;;;;11.23;5.80;;;13.20;99.90;;;;;;4682347;30;20037;-82
2021/01/10 08:06:05;;;;;;;12.35;4.93;;;13.10;99.90;;;;;;4695007;30;20049;-83
2021/01/10 08:08:41;;;;;;;7.60;4.35;;;13.10;99.90;;;;;;4710529;30;20041;-83
2021/01/10 08:11:08;;;;;;;8.00;4.13;;;13.20;99.90;;;;;;4694042;30;20039;-84
2021/01/10 08:13:38;;;;;;;10.25;4.05;;;13.20;99.90;;;;;;4693967;30;20037;-84
2021/01/10 08:16:04;;;;;;;8.73;3.25;;;13.20;99.90;;;;;;4695045;30;20088;-85
2021/01/10 08:18:33;;;;;;;10.52;4.80;;;13.20;99.90;;;;;;4696464;30;20033;-84
2021/01/10 08:21:01;;;;;;;13.10;4.85;;;13.20;99.90;;;;;;4700094;30;20053;-84
2021/01/10 08:23:27;;;;;;;8.40;5.18;;;13.20;99.90;;;;;;4711401;30;20382;-84
2021/01/10 08:26:02;;;;;;;15.52;5.03;;;13.20;99.90;;;;;;4689273;30;20041;-84
2021/01/10 08:28:32;;;;;;;10.25;4.95;;;13.20;99.90;;;;;;4694569;30;20118;-84
2021/01/10 08:31:05;;;;;;;10.88;5.40;;;13.20;99.90;;;;;;4681709;30;20715;-84
2021/01/10 08:33:31;;;;;;;;;;;13.30;99.90;;;;;;4707710;30;20121;-84
2021/01/10 08:36:13;;;;;;;16.88;9.20;;;13.30;99.90;;;;;;4695813;30;19951;-84
2021/01/10 08:38:50;;;;;;;129.55;67.57;;;13.30;99.90;;;;;;4710146;30;20092;-84
2021/01/10 08:41:35;;;;;;;120.13;61.35;;;13.40;99.90;;;;;;4683385;30;20042;-84
2021/01/10 08:44:09;;;;;;;56.35;29.08;;;13.60;99.90;;;;;;4695748;30;20079;-83
2021/01/10 08:46:37;;;;;;;;;;;13.60;99.90;;;;;;4682192;30;20127;-83
2021/01/10 08:49:04;;;;;;;36.00;16.58;;;13.70;99.90;;;;;;4677292;30;19915;-85
2021/01/10 08:51:36;;;;;;;18.75;9.00;;;13.80;99.90;;;;;;4698974;30;20038;-85
2021/01/10 08:54:09;;;;;;;47.50;27.27;;;13.90;99.90;;;;;;4703122;30;20038;-84
2021/01/10 08:56:37;;;;;;;70.15;37.83;;;13.90;99.90;;;;;;4698562;30;20464;-83
2021/01/10 08:59:05;;;;;;;47.47;21.60;;;13.90;99.90;;;;;;4682765;30;20388;-84
2021/01/10 09:01:52;;;;;;;52.10;23.67;;;13.90;99.90;;;;;;4683137;30;20049;-85
2021/01/10 09:04:54;;;;;;;39.05;20.90;;;13.90;99.90;;;;;;4698817;30;20033;-85
2021/01/10 09:07:49;;;;;;;24.52;14.20;;;14.00;99.90;;;;;;4701327;30;20033;-84
2021/01/10 09:10:41;;;;;;;50.97;28.63;;;14.00;99.90;;;;;;4697278;30;20442;-84
2021/01/10 09:13:30;;;;;;;51.20;31.88;;;13.90;99.90;;;;;;4689492;30;20128;-84
2021/01/10 09:16:03;;;;;;;24.10;13.38;;;13.90;99.90;;;;;;4695362;30;20121;-89
2021/01/10 09:18:34;;;;;;;33.35;18.05;;;13.90;99.90;;;;;;4675022;30;20045;-84
2021/01/10 09:21:05;;;;;;;21.55;8.98;;;13.80;99.90;;;;;;4693663;30;20046;-84
2021/01/10 09:23:32;;;;;;;14.80;7.25;;;13.80;99.90;;;;;;4696117;30;20033;-89
2021/01/10 09:25:59;;;;;;;18.15;7.63;;;13.70;99.90;;;;;;4698340;30;20117;-84
2021/01/10 09:28:33;;;;;;;12.90;5.70;;;13.70;99.90;;;;;;4698966;30;20056;-83
2021/01/10 09:31:00;;;;;;;15.32;6.13;;;13.60;99.90;;;;;;4708183;30;20052;-83
2021/01/10 09:33:31;;;;;;;11.95;4.95;;;13.50;99.90;;;;;;4695448;30;20034;-83
2021/01/10 09:36:00;;;;;;;11.80;4.95;;;13.40;99.90;;;;;;4695163;30;20046;-83
2021/01/10 09:38:29;;;;;;;14.65;4.82;;;13.40;99.90;;;;;;4680918;30;20041;-83
2021/01/10 09:41:14;;;;;;;7.60;4.15;;;13.40;99.90;;;;;;4693348;30;20190;-83
2021/01/10 09:43:50;;;;;;;15.20;5.20;;;13.40;99.90;;;;;;4692961;30;20482;-83
2021/01/10 09:46:32;;;;;;;17.10;5.85;;;13.30;99.90;;;;;;4694485;30;20041;-84
2021/01/10 09:49:07;;;;;;;19.33;7.38;;;13.40;99.90;;;;;;4693204;30;20025;-84
2021/01/10 09:51:58;;;;;;;17.23;7.68;;;13.40;99.90;;;;;;4693958;30;20030;-84
2021/01/10 09:54:29;;;;;;;23.75;7.60;;;13.50;99.90;;;;;;4692269;30;20104;-83
2021/01/10 09:56:57;;;;;;;15.07;7.93;;;13.50;99.90;;;;;;4694855;30;20037;-83
2021/01/10 09:59:43;;;;;;;22.55;7.65;;;13.50;99.90;;;;;;4703045;30;20033;-83
2021/01/10 10:02:12;;;;;;;13.57;6.60;;;13.60;99.90;;;;;;4701588;30;20210;-83
2021/01/10 10:04:39;;;;;;;13.32;8.93;;;13.60;99.90;;;;;;4693461;30;20038;-82
2021/01/10 10:07:05;;;;;;;16.83;10.57;;;13.60;99.90;;;;;;4698793;30;20037;-83
2021/01/10 10:09:45;;;;;;;13.73;7.90;;;13.50;99.90;;;;;;4690773;30;20033;-85
2021/01/10 10:12:12;;;;;;;17.65;8.63;;;13.60;99.90;;;;;;4680102;30;20049;-83
2021/01/10 10:14:48;;;;;;;21.63;9.43;;;13.60;99.90;;;;;;4693454;30;20037;-84
2021/01/10 10:17:14;;;;;;;13.23;4.93;;;13.60;99.90;;;;;;4694201;30;20064;-85
2021/01/10 10:19:40;;;;;;;11.23;4.20;;;13.60;99.90;;;;;;4694762;30;20140;-84
2021/01/10 10:22:26;;;;;;;11.77;4.15;;;13.60;99.90;;;;;;4680629;30;20034;-83
2021/01/10 10:24:54;;;;;;;19.52;4.07;;;13.70;99.90;;;;;;4709752;30;20054;-83
2021/01/10 10:27:20;;;;;;;11.23;4.28;;;13.80;99.90;;;;;;4691785;30;20516;-84
2021/01/10 10:29:46;;;;;;;8.63;3.03;;;13.90;99.90;;;;;;4694533;30;20041;-83
2021/01/10 10:32:13;;;;;;;5.63;3.33;;;14.10;99.90;;;;;;4693926;30;20751;-84
2021/01/10 10:34:39;;;;;;;12.65;4.40;;;14.20;99.90;;;;;;4694040;30;20524;-84
2021/01/10 10:37:07;;;;;;;10.55;6.65;;;14.10;99.90;;;;;;4688466;30;20033;-83
2021/01/10 10:39:34;;;;;;;8.68;4.68;;;14.10;99.90;;;;;;4694384;30;20183;-83
2021/01/10 10:42:01;;;;;;;7.82;3.58;;;14.20;99.90;;;;;;4700390;30;20037;-83
2021/01/10 10:44:27;;;;;;;9.88;4.20;;;14.30;99.90;;;;;;4690107;30;20029;-82
2021/01/10 10:46:54;;;;;;;8.05;2.83;;;14.30;99.90;;;;;;4696693;30;20029;-84
2021/01/10 10:49:20;;;;;;;10.63;3.50;;;14.50;99.90;;;;;;4695574;30;20503;-84
2021/01/10 10:51:46;;;;;;;5.47;3.45;;;14.50;99.90;;;;;;4694474;30;20041;-84
2021/01/10 10:54:14;;;;;;;5.30;3.40;;;14.60;99.90;;;;;;4694734;30;20037;-84
2021/01/10 10:56:46;;;;;;;8.52;3.30;;;14.70;99.90;;;;;;4695512;30;20045;-84
2021/01/10 10:59:13;;;;;;;11.93;3.65;;;14.60;99.90;;;;;;4692028;30;20092;-84
2021/01/10 11:01:40;;;;;;;9.68;3.83;;;14.80;99.90;;;;;;4708643;30;20044;-81
2021/01/10 11:04:06;;;;;;;9.45;2.67;;;15.00;99.90;;;;;;4695153;30;20035;-82
2021/01/10 11:06:33;;;;;;;8.13;2.78;;;15.10;99.90;;;;;;4680752;30;20060;-82
2021/01/10 11:09:00;;;;;;;7.88;2.78;;;15.30;99.90;;;;;;4709621;30;20029;-83
2021/01/10 11:11:36;;;;;;;8.38;2.95;;;15.40;99.90;;;;;;4697992;30;20037;-83
2021/01/10 11:14:03;;;;;;;8.35;3.20;;;15.60;99.90;;;;;;4694463;30;20418;-83
2021/01/10 11:16:37;;;;;;;5.32;2.33;;;15.80;99.90;;;;;;4694548;30;20069;-83
2021/01/10 11:19:05;;;;;;;6.72;3.00;;;15.90;99.90;;;;;;4693889;30;20038;-83
2021/01/10 11:21:34;;;;;;;6.60;4.75;;;16.00;99.90;;;;;;4700727;30;20408;-84
2021/01/10 11:24:02;;;;;;;12.77;4.57;;;15.70;99.90;;;;;;4696052;30;20038;-83
2021/01/10 11:26:29;;;;;;;13.43;4.13;;;15.80;99.90;;;;;;4701430;30;20128;-84
2021/01/10 11:28:55;;;;;;;8.00;3.20;;;15.70;99.90;;;;;;4697856;30;20038;-86
2021/01/10 11:31:29;;;;;;;7.50;3.83;;;15.70;99.90;;;;;;4712241;30;20072;-84
2021/01/10 11:33:55;;;;;;;5.65;2.70;;;15.60;99.90;;;;;;4694653;30;20302;-84
2021/01/10 11:36:21;;;;;;;8.63;2.85;;;15.70;99.90;;;;;;4695625;30;20030;-84
2021/01/10 11:38:55;;;;;;;9.95;3.63;;;15.90;99.90;;;;;;4696891;30;20064;-83
2021/01/10 11:41:21;;;;;;;;;;;16.00;99.90;;;;;;4697824;30;20049;-87
2021/01/10 11:43:52;;;;;;;13.13;4.25;;;16.20;99.90;;;;;;4712170;30;20014;-84
2021/01/10 11:46:19;;;;;;;9.23;4.72;;;16.20;99.90;;;;;;4711875;30;20037;-83
2021/01/10 11:48:46;;;;;;;11.82;5.43;;;16.30;99.90;;;;;;4699361;30;20043;-85
2021/01/10 11:51:14;;;;;;;14.93;6.80;;;16.50;99.90;;;;;;4691596;30;20487;-84
2021/01/10 11:53:41;;;;;;;12.05;7.68;;;16.60;99.90;;;;;;4711283;30;20065;-78
2021/01/10 11:56:07;;;;;;;14.35;7.45;;;16.70;99.90;;;;;;4696696;30;20033;-83
2021/01/10 11:58:37;;;;;;;14.73;7.45;;;16.70;99.90;;;;;;4704265;30;20048;-82
2021/01/10 12:01:04;;;;;;;14.88;6.78;;;16.70;99.90;;;;;;4697011;30;20140;-86
2021/01/10 12:03:30;;;;;;;12.45;5.78;;;16.80;99.90;;;;;;4696943;30;20499;-82
2021/01/10 12:05:56;;;;;;;10.55;5.10;;;16.90;99.90;;;;;;4704628;30;20046;-82
2021/01/10 12:08:23;;;;;;;12.82;6.18;;;16.90;99.90;;;;;;4684351;30;20048;-81
2021/01/10 12:10:51;;;;;;;19.92;7.07;;;16.90;99.90;;;;;;4696178;30;20521;-81
2021/01/10 12:13:18;;;;;;;21.13;8.00;;;16.90;99.90;;;;;;4709160;30;20042;-82
2021/01/10 12:15:46;;;;;;;15.20;7.43;;;16.90;99.90;;;;;;4695177;30;20602;-82
2021/01/10 12:18:13;;;;;;;18.65;8.23;;;17.00;99.90;;;;;;4680040;30;20508;-83
2021/01/10 12:20:39;;;;;;;15.05;6.20;;;17.00;99.90;;;;;;4695066;30;20057;-82
2021/01/10 12:23:06;;;;;;;16.70;7.07;;;17.10;99.90;;;;;;4696176;30;20033;-82
2021/01/10 12:25:32;;;;;;;24.92;13.25;;;17.10;99.90;;;;;;4699858;30;20042;-81
2021/01/10 12:27:59;;;;;;;51.20;27.20;;;17.10;99.90;;;;;;4696892;30;20040;-82
2021/01/10 12:30:26;;;;;;;64.43;34.20;;;17.20;99.90;;;;;;4696866;30;20072;-82
2021/01/10 12:32:53;;;;;;;26.20;14.35;;;17.30;99.90;;;;;;4676903;30;20038;-81
2021/01/10 12:35:19;;;;;;;22.05;10.65;;;17.40;99.90;;;;;;4680206;30;20096;-82
2021/01/10 12:37:47;;;;;;;21.90;8.48;;;17.40;99.90;;;;;;4695826;30;20461;-82
2021/01/10 12:40:14;;;;;;;19.10;6.60;;;17.40;99.90;;;;;;4694085;30;20034;-82
2021/01/10 12:42:40;;;;;;;13.00;6.07;;;17.40;99.90;;;;;;4700791;30;20463;-82
2021/01/10 12:45:08;;;;;;;15.90;7.00;;;17.40;99.90;;;;;;4694528;30;20034;-83
2021/01/10 12:47:35;;;;;;;13.20;5.07;;;17.50;99.90;;;;;;4680875;30;20109;-83
2021/01/10 12:50:01;;;;;;;21.55;5.30;;;17.40;99.90;;;;;;4691581;30;20120;-83
2021/01/10 12:52:27;;;;;;;14.25;6.35;;;17.40;99.90;;;;;;4708698;30;20037;-84
2021/01/10 12:54:53;;;;;;;17.70;5.80;;;17.30;99.90;;;;;;4698747;30;20029;-83
2021/01/10 12:57:19;;;;;;;14.75;6.43;;;17.20;99.90;;;;;;4697632;30;20043;-82